Time;durP1;ratioP1;P1;durP2;ratioP2;P2;SDS_P1;SDS_P2;PMS_P1;PMS_P2;Temp;Humidity;BMP_temperature;BMP_pressure;BME280_temperature;BME280_humidity;BME280_pressure;Samples;Min_cycle;Max_cycle;Signal;HPM_P1;HPM_P2
2023/05/12 00:02:22;;;;;;;1.70;1.40;;;15.00;82.90;;;;;;5027720;28;20033;-77
2023/05/12 00:04:47;;;;;;;1.50;1.10;;;15.00;83.00;;;;;;5032468;28;20499;-70
2023/05/12 00:07:13;;;;;;;2.80;1.52;;;15.00;83.10;;;;;;5017612;28;20045;-70
2023/05/12 00:09:40;;;;;;;1.30;1.20;;;15.00;83.00;;;;;;5042409;28;20107;-70
2023/05/12 00:12:07;;;;;;;2.22;1.52;;;14.90;82.90;;;;;;5034643;28;20424;-70
2023/05/12 00:14:34;;;;;;;2.10;1.30;;;14.90;83.00;;;;;;5038570;28;20424;-70
2023/05/12 00:17:01;;;;;;;2.25;1.60;;;14.90;83.00;;;;;;5042524;28;20087;-70
2023/05/12 00:19:27;;;;;;;3.28;1.85;;;14.90;83.10;;;;;;5033436;28;20385;-77
2023/05/12 00:21:52;;;;;;;3.20;1.67;;;14.80;83.10;;;;;;5031241;28;20025;-78
2023/05/12 00:24:18;;;;;;;2.38;1.27;;;14.80;83.20;;;;;;5026392;28;20109;-77
2023/05/12 00:26:44;;;;;;;4.68;1.67;;;14.90;83.30;;;;;;5028013;28;20038;-77
2023/05/12 00:29:09;;;;;;;2.53;1.38;;;14.80;83.90;;;;;;5030571;28;20030;-78
2023/05/12 00:31:35;;;;;;;3.13;1.90;;;14.80;83.30;;;;;;5028128;28;20037;-77
2023/05/12 00:34:01;;;;;;;3.08;1.95;;;14.80;83.30;;;;;;5030911;28;20029;-77
2023/05/12 00:36:26;;;;;;;2.25;1.65;;;14.80;83.40;;;;;;5032201;28;20053;-70
2023/05/12 00:38:53;;;;;;;1.67;1.23;;;14.80;83.50;;;;;;5045253;28;20037;-69
2023/05/12 00:41:19;;;;;;;1.00;0.90;;;14.80;83.40;;;;;;5039186;28;20026;-70
2023/05/12 00:43:45;;;;;;;1.60;1.17;;;14.80;83.30;;;;;;5031360;28;20029;-70
2023/05/12 00:46:11;;;;;;;2.03;1.48;;;14.80;83.30;;;;;;5029152;28;20037;-70
2023/05/12 00:48:37;;;;;;;3.95;1.27;;;14.80;83.40;;;;;;5027233;28;20065;-70
2023/05/12 00:51:05;;;;;;;0.95;0.82;;;14.80;83.40;;;;;;5025644;28;20114;-69
2023/05/12 00:53:31;;;;;;;2.42;0.90;;;14.80;83.40;;;;;;5024356;28;20049;-70
2023/05/12 00:55:57;;;;;;;1.67;0.85;;;14.80;83.40;;;;;;5028308;28;20018;-70
2023/05/12 00:58:23;;;;;;;1.58;1.00;;;14.80;83.40;;;;;;5033230;28;20515;-78
2023/05/12 01:00:49;;;;;;;1.70;0.90;;;14.80;83.40;;;;;;5026706;28;20080;-78
2023/05/12 01:03:16;;;;;;;1.27;0.70;;;14.80;83.50;;;;;;5021958;28;20041;-70
2023/05/12 01:06:04;;;;;;;1.05;0.88;;;14.70;83.60;;;;;;5029144;28;20029;-70
2023/05/12 01:08:32;;;;;;;0.82;0.75;;;14.80;83.60;;;;;;5026330;28;20041;-78
2023/05/12 01:10:57;;;;;;;0.47;0.35;;;14.70;83.70;;;;;;5023860;28;20030;-78
2023/05/12 01:13:23;;;;;;;0.80;0.60;;;14.70;83.70;;;;;;5027545;28;20034;-70
2023/05/12 01:15:51;;;;;;;0.85;0.55;;;14.70;83.70;;;;;;5010060;28;20041;-70
2023/05/12 01:18:20;;;;;;;0.88;0.50;;;14.70;83.70;;;;;;5032287;28;20449;-70
2023/05/12 01:20:47;;;;;;;0.98;0.63;;;14.70;83.80;;;;;;5027425;28;20053;-70
2023/05/12 01:23:17;;;;;;;0.85;0.80;;;14.70;83.70;;;;;;5028941;28;20040;-70
2023/05/12 01:25:45;;;;;;;0.65;0.60;;;14.70;83.80;;;;;;5030912;28;20040;-70
2023/05/12 01:28:11;;;;;;;0.77;0.43;;;14.70;84.00;;;;;;5030555;28;20035;-77
2023/05/12 01:30:41;;;;;;;0.73;0.73;;;14.60;84.10;;;;;;5034187;28;20034;-77
2023/05/12 01:33:08;;;;;;;0.85;0.47;;;14.60;84.10;;;;;;5010452;28;20125;-77
2023/05/12 01:35:34;;;;;;;0.70;0.50;;;14.60;84.10;;;;;;5032563;28;20018;-76
2023/05/12 01:38:00;;;;;;;1.92;1.02;;;14.60;84.20;;;;;;5027477;28;20080;-77
2023/05/12 01:40:25;;;;;;;0.73;0.70;;;14.60;84.20;;;;;;5026522;28;20041;-70
2023/05/12 01:42:51;;;;;;;0.73;0.60;;;14.60;84.20;;;;;;5018741;28;20092;-77
2023/05/12 01:45:17;;;;;;;0.75;0.60;;;14.60;84.20;;;;;;5021726;28;20025;-77
2023/05/12 01:47:43;;;;;;;1.33;1.00;;;14.60;84.20;;;;;;5033293;28;20504;-77
2023/05/12 01:50:09;;;;;;;1.25;0.77;;;14.60;84.20;;;;;;5031919;28;20049;-77
2023/05/12 01:52:35;;;;;;;0.57;0.57;;;14.60;84.20;;;;;;5032212;28;20030;-77
2023/05/12 01:55:00;;;;;;;1.05;0.80;;;14.60;84.20;;;;;;5027841;28;20026;-78
2023/05/12 01:57:26;;;;;;;1.23;0.75;;;14.60;84.30;;;;;;5022836;28;20026;-77
2023/05/12 01:59:52;;;;;;;1.58;1.15;;;14.60;84.20;;;;;;5018743;28;20038;-77
2023/05/12 02:02:17;;;;;;;1.33;1.05;;;14.60;84.40;;;;;;4996872;28;20141;-77
2023/05/12 02:04:43;;;;;;;1.10;0.70;;;14.50;84.40;;;;;;5019652;28;20033;-77
2023/05/12 02:07:09;;;;;;;1.85;0.80;;;14.50;84.50;;;;;;5038876;28;20025;-77
2023/05/12 02:09:35;;;;;;;1.42;0.77;;;14.50;84.60;;;;;;5030814;28;20113;-77
2023/05/12 02:12:01;;;;;;;1.48;0.85;;;14.50;84.50;;;;;;5027784;28;20108;-77
2023/05/12 02:14:26;;;;;;;1.55;1.00;;;14.60;84.60;;;;;;5026814;28;20044;-77
2023/05/12 02:16:54;;;;;;;1.65;0.82;;;14.50;85.00;;;;;;5030291;28;20041;-78
2023/05/12 02:19:20;;;;;;;1.23;0.80;;;14.50;84.50;;;;;;5013780;28;20034;-77
2023/05/12 02:21:46;;;;;;;2.20;1.15;;;14.50;84.60;;;;;;5015214;28;20064;-77
2023/05/12 02:24:12;;;;;;;1.13;0.73;;;14.50;84.60;;;;;;5030294;28;20040;-70
2023/05/12 02:26:38;;;;;;;1.85;1.10;;;14.50;84.60;;;;;;5030469;28;20037;-70
2023/05/12 02:29:03;;;;;;;2.10;1.27;;;14.50;84.60;;;;;;5028280;28;20500;-77
2023/05/12 02:31:29;;;;;;;2.30;1.75;;;14.60;84.60;;;;;;5031121;28;20038;-77
2023/05/12 02:33:55;;;;;;;2.65;1.50;;;14.60;84.70;;;;;;5028286;28;20057;-77
2023/05/12 02:36:20;;;;;;;2.03;1.00;;;14.50;84.70;;;;;;5029616;28;20041;-77
2023/05/12 02:38:46;;;;;;;2.20;1.52;;;14.50;84.80;;;;;;5026547;28;20460;-77
2023/05/12 02:41:12;;;;;;;3.72;2.17;;;14.60;84.80;;;;;;5028680;28;20042;-77
2023/05/12 02:43:38;;;;;;;1.52;1.20;;;14.50;84.70;;;;;;5033324;28;20179;-70
2023/05/12 02:46:03;;;;;;;2.58;1.60;;;14.50;84.80;;;;;;5021828;28;20042;-70
2023/05/12 02:48:29;;;;;;;3.20;2.28;;;14.50;84.90;;;;;;5042743;28;20128;-70
2023/05/12 02:50:55;;;;;;;2.10;1.90;;;14.50;84.90;;;;;;5042778;28;20033;-76
2023/05/12 02:53:20;;;;;;;4.78;2.03;;;14.50;85.00;;;;;;5044476;28;20055;-76
2023/05/12 02:55:46;;;;;;;2.53;1.85;;;14.50;85.00;;;;;;5036569;28;20164;-76
2023/05/12 02:58:12;;;;;;;2.47;1.80;;;14.50;85.00;;;;;;5035782;28;20046;-76
2023/05/12 03:00:37;;;;;;;2.47;1.73;;;14.50;85.00;;;;;;5026544;28;20026;-76
2023/05/12 03:03:03;;;;;;;2.40;1.42;;;14.50;85.00;;;;;;5026984;28;20410;-76
2023/05/12 03:05:29;;;;;;;2.83;1.88;;;14.50;85.10;;;;;;5028638;28;20040;-76
2023/05/12 03:07:55;;;;;;;4.05;2.22;;;14.50;85.10;;;;;;5026640;28;20026;-76
2023/05/12 03:10:21;;;;;;;3.45;2.10;;;14.50;85.10;;;;;;5034320;28;20026;-76
2023/05/12 03:12:47;;;;;;;3.70;2.10;;;14.50;85.10;;;;;;5040112;28;20040;-76
2023/05/12 03:15:12;;;;;;;2.88;2.13;;;14.50;85.20;;;;;;5034374;28;20105;-70
2023/05/12 03:17:38;;;;;;;6.95;2.80;;;14.50;85.20;;;;;;5033848;28;20029;-70
2023/05/12 03:20:05;;;;;;;3.83;2.22;;;14.50;85.80;;;;;;5024950;28;20030;-70
2023/05/12 03:22:30;;;;;;;3.38;2.35;;;14.50;85.90;;;;;;5037842;28;20129;-70
2023/05/12 03:24:56;;;;;;;4.95;2.55;;;14.60;85.30;;;;;;5028659;28;20041;-70
2023/05/12 03:27:22;;;;;;;5.40;2.97;;;14.60;85.20;;;;;;5040052;28;20508;-70
2023/05/12 03:29:47;;;;;;;3.75;2.28;;;14.60;85.20;;;;;;5030860;28;20029;-70
2023/05/12 03:32:13;;;;;;;5.28;2.45;;;14.60;85.20;;;;;;5034779;28;20061;-70
2023/05/12 03:34:39;;;;;;;4.40;2.75;;;14.60;85.30;;;;;;5030813;28;20025;-70
2023/05/12 03:37:04;;;;;;;5.25;2.83;;;14.60;85.50;;;;;;5033942;28;20025;-70
2023/05/12 03:39:30;;;;;;;5.43;2.80;;;14.60;85.50;;;;;;5027166;28;20025;-70
2023/05/12 03:41:56;;;;;;;6.05;3.35;;;14.60;85.50;;;;;;5027372;28;20034;-70
2023/05/12 03:44:21;;;;;;;4.13;2.50;;;14.60;85.50;;;;;;5021740;28;20033;-70
2023/05/12 03:46:47;;;;;;;5.90;3.75;;;14.60;85.60;;;;;;5019112;28;20065;-76
2023/05/12 03:49:13;;;;;;;3.83;2.92;;;14.60;85.70;;;;;;5027136;28;20532;-76
2023/05/12 03:51:38;;;;;;;4.65;2.70;;;14.60;86.40;;;;;;5024999;28;20060;-70
2023/05/12 03:54:04;;;;;;;3.55;2.28;;;14.70;85.90;;;;;;5025497;28;20050;-74
2023/05/12 03:56:31;;;;;;;7.53;3.60;;;14.70;86.40;;;;;;5025840;28;20104;-74
2023/05/12 03:58:57;;;;;;;6.90;3.13;;;14.70;85.60;;;;;;5027790;28;20030;-75
2023/05/12 04:01:22;;;;;;;5.95;3.10;;;14.70;85.60;;;;;;5026437;28;20144;-75
2023/05/12 04:03:48;;;;;;;7.22;3.38;;;14.70;85.60;;;;;;5028945;28;20072;-68
2023/05/12 04:06:14;;;;;;;4.50;3.28;;;14.80;85.50;;;;;;5030944;28;20037;-71
2023/05/12 04:08:39;;;;;;;5.18;3.20;;;14.80;85.40;;;;;;5028805;28;20030;-69
2023/05/12 04:11:05;;;;;;;6.82;3.17;;;14.80;85.40;;;;;;5023071;28;20476;-75
2023/05/12 04:13:31;;;;;;;6.35;3.22;;;14.80;85.40;;;;;;5026414;28;20112;-76
2023/05/12 04:15:58;;;;;;;5.53;3.08;;;14.80;85.40;;;;;;5030213;28;20033;-76
2023/05/12 04:18:27;;;;;;;4.97;2.80;;;14.90;85.40;;;;;;5031653;28;20024;-76
2023/05/12 04:20:53;;;;;;;4.38;2.75;;;14.90;85.30;;;;;;5028539;28;20030;-76
2023/05/12 04:23:19;;;;;;;8.82;4.28;;;15.00;85.30;;;;;;5030005;28;20029;-76
2023/05/12 04:25:45;;;;;;;6.88;3.45;;;15.00;85.30;;;;;;5028501;28;20064;-76
2023/05/12 04:28:11;;;;;;;11.57;3.97;;;15.00;86.00;;;;;;5028250;28;20332;-76
2023/05/12 04:30:41;;;;;;;6.18;3.22;;;15.00;85.40;;;;;;5028934;28;20029;-75
2023/05/12 04:33:07;;;;;;;7.43;3.75;;;15.00;85.40;;;;;;5028808;28;20033;-76
2023/05/12 04:35:33;;;;;;;5.15;3.30;;;15.00;85.40;;;;;;5031427;28;20033;-76
2023/05/12 04:38:02;;;;;;;7.15;3.60;;;15.10;85.40;;;;;;5027571;28;20113;-76
2023/05/12 04:40:28;;;;;;;6.28;4.03;;;15.10;85.40;;;;;;5030373;28;20032;-76
2023/05/12 04:42:54;;;;;;;6.70;4.28;;;15.10;85.40;;;;;;5028542;28;20026;-74
2023/05/12 04:45:19;;;;;;;6.75;3.95;;;15.10;85.40;;;;;;5023269;28;20109;-68
2023/05/12 04:47:45;;;;;;;7.88;4.38;;;15.10;85.40;;;;;;5029276;28;20109;-68
2023/05/12 04:50:11;;;;;;;5.45;3.33;;;15.20;85.50;;;;;;5036196;28;20235;-68
2023/05/12 04:52:37;;;;;;;5.65;3.65;;;15.20;85.40;;;;;;5026186;28;20029;-68
2023/05/12 04:55:04;;;;;;;6.50;3.70;;;15.20;85.40;;;;;;5027741;28;20587;-68
2023/05/12 04:57:30;;;;;;;7.03;3.88;;;15.20;85.40;;;;;;5030050;28;20503;-74
2023/05/12 04:59:58;;;;;;;8.63;4.60;;;15.20;85.30;;;;;;5028992;28;20109;-75
2023/05/12 05:02:24;;;;;;;8.98;4.03;;;15.30;85.30;;;;;;5029467;28;20018;-75
2023/05/12 05:04:49;;;;;;;7.85;4.20;;;15.30;85.10;;;;;;5031237;28;20030;-75
2023/05/12 05:07:15;;;;;;;9.27;4.60;;;15.30;85.10;;;;;;5030338;28;20432;-68
2023/05/12 05:09:41;;;;;;;8.18;4.40;;;15.30;85.10;;;;;;5028473;28;20030;-68
2023/05/12 05:12:07;;;;;;;5.47;3.55;;;15.40;85.20;;;;;;5025955;28;20508;-68
2023/05/12 05:14:33;;;;;;;8.18;4.85;;;15.40;85.30;;;;;;5026674;28;20491;-69
2023/05/12 05:16:58;;;;;;;10.32;3.72;;;15.40;85.40;;;;;;5030387;28;20021;-68
2023/05/12 05:19:25;;;;;;;5.57;3.60;;;15.40;85.20;;;;;;5038076;28;20076;-67
2023/05/12 05:21:51;;;;;;;7.50;4.10;;;15.40;85.10;;;;;;5026250;28;20057;-68
2023/05/12 05:24:17;;;;;;;7.13;3.67;;;15.50;85.20;;;;;;5031799;28;20490;-67
2023/05/12 05:26:42;;;;;;;4.90;3.92;;;15.50;85.00;;;;;;5027593;28;20191;-68
2023/05/12 05:29:08;;;;;;;5.28;3.45;;;15.60;85.00;;;;;;5027031;28;20042;-75
2023/05/12 05:31:33;;;;;;;6.95;3.83;;;15.60;85.10;;;;;;5030420;28;20041;-75
2023/05/12 05:33:59;;;;;;;4.63;3.15;;;15.60;85.00;;;;;;5023901;28;20065;-75
2023/05/12 05:36:25;;;;;;;8.63;5.10;;;15.70;85.00;;;;;;5030306;28;20456;-75
2023/05/12 05:38:51;;;;;;;7.53;4.22;;;15.70;85.00;;;;;;5033074;28;20029;-75
2023/05/12 05:41:17;;;;;;;6.68;3.58;;;15.70;85.00;;;;;;5030647;28;20049;-71
2023/05/12 05:43:43;;;;;;;6.53;3.80;;;15.70;85.00;;;;;;5029452;28;20057;-70
2023/05/12 05:46:08;;;;;;;8.77;4.88;;;15.80;84.90;;;;;;5029474;28;20491;-72
2023/05/12 05:48:35;;;;;;;7.15;4.25;;;15.80;84.80;;;;;;5028832;28;20033;-70
2023/05/12 05:51:01;;;;;;;8.50;4.80;;;15.90;84.90;;;;;;5026472;28;20065;-70
2023/05/12 05:53:27;;;;;;;8.57;5.03;;;15.90;85.00;;;;;;5025646;28;20443;-68
2023/05/12 05:55:52;;;;;;;6.90;4.35;;;15.90;85.00;;;;;;5030073;28;20057;-67
2023/05/12 05:58:18;;;;;;;8.48;4.00;;;15.90;85.10;;;;;;5031365;28;20025;-68
2023/05/12 06:00:44;;;;;;;8.43;4.03;;;15.90;85.00;;;;;;5033466;28;20033;-67
2023/05/12 06:03:10;;;;;;;7.50;4.38;;;16.00;85.00;;;;;;5024197;28;20026;-68
2023/05/12 06:05:36;;;;;;;7.55;4.25;;;15.90;84.90;;;;;;5034803;28;20032;-68
2023/05/12 06:08:04;;;;;;;7.82;4.03;;;16.00;85.00;;;;;;5032604;28;20103;-75
2023/05/12 06:10:30;;;;;;;7.18;4.68;;;16.00;84.90;;;;;;5020083;28;20428;-75
2023/05/12 06:12:55;;;;;;;5.93;3.58;;;16.00;84.90;;;;;;5037969;28;20021;-75
2023/05/12 06:15:21;;;;;;;7.55;4.50;;;16.00;84.90;;;;;;5037639;28;20036;-74
2023/05/12 06:17:47;;;;;;;7.28;4.28;;;16.10;84.80;;;;;;5031479;28;20029;-74
2023/05/12 06:20:13;;;;;;;8.20;3.97;;;16.10;84.70;;;;;;5029647;28;20040;-74
2023/05/12 06:22:41;;;;;;;5.95;3.42;;;16.10;84.70;;;;;;5027967;28;20029;-71
2023/05/12 06:25:07;;;;;;;7.10;3.80;;;16.10;84.70;;;;;;5034890;28;20021;-72
2023/05/12 06:27:32;;;;;;;7.80;4.07;;;16.10;84.70;;;;;;5021964;28;20489;-71
2023/05/12 06:29:58;;;;;;;9.38;3.90;;;16.10;84.90;;;;;;5026182;28;20136;-64
2023/05/12 06:32:24;;;;;;;6.38;3.20;;;16.20;84.90;;;;;;5038193;28;20037;-64
2023/05/12 06:34:49;;;;;;;6.22;3.70;;;16.20;84.80;;;;;;5034706;28;20025;-65
2023/05/12 06:37:15;;;;;;;9.63;4.50;;;16.20;84.70;;;;;;5030347;28;20037;-64
2023/05/12 06:39:41;;;;;;;9.20;4.70;;;16.30;84.60;;;;;;5030474;28;20021;-65
2023/05/12 06:42:06;;;;;;;6.90;3.90;;;16.40;84.60;;;;;;5031695;28;20022;-64
2023/05/12 06:44:32;;;;;;;5.75;3.78;;;16.40;84.50;;;;;;5029376;28;20041;-76
2023/05/12 06:46:58;;;;;;;7.50;4.45;;;16.50;84.50;;;;;;5026451;28;20042;-70
2023/05/12 06:49:24;;;;;;;7.95;4.32;;;16.60;84.40;;;;;;5030657;28;20041;-67
2023/05/12 06:51:50;;;;;;;6.53;3.85;;;16.60;84.20;;;;;;5024126;28;20393;-65
2023/05/12 06:54:15;;;;;;;6.60;3.40;;;16.60;84.20;;;;;;5029074;28;20060;-69
2023/05/12 06:56:41;;;;;;;5.68;3.40;;;16.80;84.10;;;;;;5026981;28;20183;-73
2023/05/12 06:59:07;;;;;;;5.38;3.75;;;16.80;83.90;;;;;;5032411;28;20107;-76
2023/05/12 07:01:33;;;;;;;4.53;2.83;;;17.00;83.80;;;;;;5011463;28;20033;-72
2023/05/12 07:03:59;;;;;;;7.47;4.18;;;17.10;83.60;;;;;;5028535;28;20041;-72
2023/05/12 07:06:28;;;;;;;7.28;3.70;;;17.20;83.30;;;;;;5029374;28;20044;-75
2023/05/12 07:08:54;;;;;;;6.20;3.15;;;17.30;83.30;;;;;;5031814;28;20029;-75
2023/05/12 07:11:20;;;;;;;6.00;3.85;;;17.40;83.10;;;;;;5029131;28;20386;-67
2023/05/12 07:13:46;;;;;;;6.68;3.17;;;17.50;83.10;;;;;;5040288;28;20022;-68
2023/05/12 07:16:13;;;;;;;4.28;2.80;;;17.60;82.90;;;;;;5022120;28;20499;-68
2023/05/12 07:18:39;;;;;;;4.88;3.40;;;17.60;82.70;;;;;;5022012;28;20400;-68
2023/05/12 07:21:04;;;;;;;7.72;3.58;;;17.70;83.30;;;;;;5016596;28;20034;-70
2023/05/12 07:23:30;;;;;;;6.50;3.20;;;17.70;82.60;;;;;;5027076;28;20049;-68
2023/05/12 07:25:56;;;;;;;6.78;4.22;;;17.70;82.60;;;;;;5026010;28;20026;-68
2023/05/12 07:28:21;;;;;;;6.18;3.63;;;17.80;82.50;;;;;;5023521;28;20076;-68
2023/05/12 07:30:47;;;;;;;5.63;3.63;;;17.80;82.50;;;;;;5023515;28;20053;-76
2023/05/12 07:33:14;;;;;;;4.60;3.17;;;17.80;82.40;;;;;;5027260;28;20091;-68
2023/05/12 07:35:39;;;;;;;5.35;3.53;;;17.80;82.50;;;;;;5025208;28;20021;-68
2023/05/12 07:38:06;;;;;;;4.57;2.92;;;17.90;82.40;;;;;;5016346;28;20096;-76
2023/05/12 07:40:31;;;;;;;3.70;2.33;;;17.90;82.20;;;;;;5029817;28;20035;-76
2023/05/12 07:42:57;;;;;;;4.72;2.13;;;18.00;82.10;;;;;;5029745;28;20022;-76
2023/05/12 07:45:24;;;;;;;4.10;2.35;;;18.10;82.00;;;;;;5039659;28;20033;-76
2023/05/12 07:47:50;;;;;;;2.67;2.13;;;18.10;81.90;;;;;;5032717;28;20388;-77
2023/05/12 07:50:20;;;;;;;3.40;2.30;;;18.10;81.80;;;;;;5031010;28;20471;-76
2023/05/12 07:52:50;;;;;;;4.35;2.58;;;18.20;81.80;;;;;;5031887;28;20034;-68
2023/05/12 07:55:17;;;;;;;4.18;3.03;;;18.20;81.70;;;;;;5028287;28;20704;-68
2023/05/12 07:57:42;;;;;;;6.60;3.10;;;18.30;81.70;;;;;;5036620;28;20056;-68
2023/05/12 08:00:10;;;;;;;4.47;2.85;;;18.30;81.60;;;;;;5026230;28;20495;-68
2023/05/12 08:02:39;;;;;;;3.92;2.60;;;18.30;81.30;;;;;;5031627;28;20025;-69
2023/05/12 08:05:07;;;;;;;3.45;2.30;;;18.40;81.60;;;;;;5028160;28;20037;-68
2023/05/12 08:07:33;;;;;;;4.55;2.45;;;18.50;81.10;;;;;;5033039;28;20496;-69
2023/05/12 08:09:59;;;;;;;4.13;2.75;;;18.60;80.80;;;;;;5013425;28;20387;-70
2023/05/12 08:12:24;;;;;;;3.28;1.98;;;18.70;80.60;;;;;;5014001;28;20488;-70
2023/05/12 08:14:50;;;;;;;4.53;2.55;;;18.80;80.40;;;;;;5014303;28;20022;-70
2023/05/12 08:17:16;;;;;;;2.80;1.70;;;18.80;80.10;;;;;;5029534;28;20025;-66
2023/05/12 08:19:41;;;;;;;2.75;2.33;;;18.90;79.80;;;;;;5031341;28;20064;-65
2023/05/12 08:22:07;;;;;;;3.40;2.22;;;19.00;79.50;;;;;;5034059;28;20147;-74
2023/05/12 08:24:32;;;;;;;4.15;2.58;;;19.10;79.20;;;;;;5031048;28;20485;-75
2023/05/12 08:26:58;;;;;;;2.17;1.98;;;19.00;79.00;;;;;;5024477;28;20037;-78
2023/05/12 08:29:24;;;;;;;2.17;1.60;;;19.00;78.70;;;;;;5026920;28;20108;-78
2023/05/12 08:31:49;;;;;;;1.92;1.50;;;19.00;78.90;;;;;;5035298;28;20053;-78
2023/05/12 08:34:15;;;;;;;2.08;1.30;;;19.00;78.80;;;;;;5032725;28;20070;-78
2023/05/12 08:36:41;;;;;;;1.90;1.50;;;19.00;78.90;;;;;;5032595;28;20033;-68
2023/05/12 08:39:10;;;;;;;1.60;1.40;;;19.00;78.70;;;;;;5034300;28;20113;-68
2023/05/12 08:42:09;;;;;;;1.63;1.25;;;19.10;78.70;;;;;;5030088;28;20520;-76
2023/05/12 08:44:39;;;;;;;1.67;1.45;;;19.10;78.60;;;;;;5018397;28;20037;-77
2023/05/12 08:47:06;;;;;;;1.92;1.00;;;19.20;78.30;;;;;;5040581;28;20032;-69
2023/05/12 08:49:34;;;;;;;1.30;1.17;;;19.20;78.10;;;;;;5037011;28;20892;-67
2023/05/12 08:52:04;;;;;;;1.80;1.00;;;19.30;78.10;;;;;;5035642;28;20043;-67
2023/05/12 08:54:32;;;;;;;2.97;1.15;;;19.40;77.90;;;;;;5028175;28;20163;-68
2023/05/12 08:56:59;;;;;;;1.63;1.40;;;19.50;77.60;;;;;;5031361;28;20532;-68
2023/05/12 08:59:25;;;;;;;2.35;1.45;;;19.50;77.50;;;;;;5028144;28;20050;-68
2023/05/12 09:01:53;;;;;;;1.60;1.20;;;19.60;77.40;;;;;;5033341;28;20144;-68
2023/05/12 09:04:18;;;;;;;1.63;1.20;;;19.60;77.20;;;;;;5033043;28;20052;-67
2023/05/12 09:06:45;;;;;;;2.00;1.65;;;19.70;77.00;;;;;;5033095;28;20041;-68
2023/05/12 09:09:13;;;;;;;1.38;1.27;;;19.80;76.90;;;;;;5036487;28;20558;-68
2023/05/12 09:11:40;;;;;;;1.90;1.30;;;19.90;76.80;;;;;;5035612;28;20025;-68
2023/05/12 09:14:17;;;;;;;1.42;1.33;;;20.00;76.60;;;;;;5039837;28;20097;-68
2023/05/12 09:16:47;;;;;;;1.33;1.00;;;20.20;76.30;;;;;;5029782;28;20021;-68
2023/05/12 09:19:19;;;;;;;1.33;1.00;;;20.30;75.90;;;;;;5033655;28;20025;-69
2023/05/12 09:21:44;;;;;;;1.45;1.15;;;20.40;76.00;;;;;;5031258;28;20071;-69
2023/05/12 09:24:10;;;;;;;1.13;0.90;;;20.40;75.00;;;;;;5036462;28;20116;-68
2023/05/12 09:26:53;;;;;;;1.10;0.90;;;20.40;74.80;;;;;;5030426;28;20033;-67
2023/05/12 09:29:19;;;;;;;1.27;1.05;;;20.40;74.60;;;;;;5031609;28;20037;-67
2023/05/12 09:32:03;;;;;;;1.17;0.80;;;20.40;73.90;;;;;;5026566;28;20034;-68
2023/05/12 09:34:39;;;;;;;0.90;0.90;;;20.30;73.80;;;;;;5023897;28;20025;-67
2023/05/12 09:37:06;;;;;;;3.20;0.85;;;20.30;73.90;;;;;;5032603;28;20040;-67
2023/05/12 09:39:32;;;;;;;1.02;0.82;;;20.30;73.60;;;;;;5035033;28;20515;-67
2023/05/12 09:41:58;;;;;;;0.98;0.80;;;20.40;73.50;;;;;;5032314;28;20014;-67
2023/05/12 09:44:25;;;;;;;1.05;0.73;;;20.40;73.00;;;;;;5030604;28;20041;-67
2023/05/12 09:46:51;;;;;;;0.63;0.60;;;20.50;73.00;;;;;;5037161;28;20068;-67
2023/05/12 09:49:19;;;;;;;0.82;0.60;;;20.60;72.80;;;;;;5025554;28;20041;-67
2023/05/12 09:51:45;;;;;;;0.95;0.60;;;20.60;72.30;;;;;;5025676;28;20068;-67
2023/05/12 09:54:10;;;;;;;1.45;1.00;;;20.70;72.10;;;;;;5023345;28;20057;-67
2023/05/12 09:56:37;;;;;;;1.02;0.80;;;20.70;71.90;;;;;;5031512;28;20028;-67
2023/05/12 09:59:04;;;;;;;1.00;0.77;;;20.80;71.70;;;;;;5030310;28;20037;-67
2023/05/12 10:01:30;;;;;;;1.13;1.02;;;20.70;71.20;;;;;;5011496;28;20625;-67
2023/05/12 10:03:57;;;;;;;0.95;0.85;;;20.70;71.50;;;;;;5021214;28;20420;-67
2023/05/12 10:06:27;;;;;;;1.45;0.80;;;20.80;71.50;;;;;;5025691;28;20037;-67
2023/05/12 10:09:24;;;;;;;0.70;0.47;;;20.80;71.30;;;;;;5022824;28;20040;-67
2023/05/12 10:11:50;;;;;;;0.50;0.50;;;20.80;71.10;;;;;;5026220;28;20377;-76
2023/05/12 10:14:17;;;;;;;0.98;0.80;;;20.80;71.00;;;;;;5029179;28;20470;-76
2023/05/12 10:16:45;;;;;;;0.80;0.77;;;20.80;71.10;;;;;;5029749;28;20040;-76
2023/05/12 10:19:12;;;;;;;0.60;0.60;;;20.80;70.80;;;;;;5027315;28;20017;-76
2023/05/12 10:21:39;;;;;;;1.40;1.10;;;20.80;71.00;;;;;;5019662;28;20037;-67
2023/05/12 10:24:06;;;;;;;0.85;0.70;;;20.80;70.90;;;;;;5024097;28;20038;-67
2023/05/12 10:26:33;;;;;;;1.00;0.82;;;20.90;70.60;;;;;;5024777;28;20179;-67
2023/05/12 10:28:59;;;;;;;0.73;0.70;;;20.90;70.10;;;;;;5025303;28;20381;-68
2023/05/12 10:31:26;;;;;;;0.60;0.60;;;21.00;69.90;;;;;;5028637;28;20071;-76
2023/05/12 10:34:00;;;;;;;0.70;0.70;;;21.10;69.90;;;;;;5025183;28;20030;-76
2023/05/12 10:36:26;;;;;;;0.93;0.68;;;21.20;69.70;;;;;;5030117;28;20017;-76
2023/05/12 10:38:53;;;;;;;0.98;0.90;;;21.30;69.50;;;;;;5019085;28;20032;-67
2023/05/12 10:41:30;;;;;;;0.80;0.80;;;21.50;69.20;;;;;;5024254;28;20025;-67
2023/05/12 10:43:55;;;;;;;0.73;0.73;;;21.60;68.90;;;;;;5026165;28;20025;-67
2023/05/12 10:46:23;;;;;;;2.35;0.88;;;21.60;68.90;;;;;;5027929;28;20032;-67
2023/05/12 10:48:56;;;;;;;0.82;0.68;;;21.70;68.80;;;;;;5025274;28;20021;-67
2023/05/12 10:51:27;;;;;;;0.90;0.77;;;21.70;68.60;;;;;;5031844;28;20071;-67
2023/05/12 10:53:58;;;;;;;1.85;0.63;;;21.70;68.70;;;;;;5028797;28;20061;-67
2023/05/12 10:56:29;;;;;;;1.50;0.85;;;21.90;68.60;;;;;;5018164;28;20021;-67
2023/05/12 10:59:17;;;;;;;2.75;1.50;;;21.90;67.90;;;;;;5021203;28;20037;-66
2023/05/12 11:01:57;;;;;;;3.75;2.00;;;22.00;67.40;;;;;;5027011;28;20037;-67
2023/05/12 11:04:33;;;;;;;4.63;1.52;;;22.10;67.40;;;;;;5027958;28;20025;-67
2023/05/12 11:06:59;;;;;;;3.90;1.58;;;22.30;67.30;;;;;;5027899;28;20033;-67
2023/05/12 11:09:25;;;;;;;3.13;0.95;;;22.40;66.90;;;;;;5034949;28;20387;-76
2023/05/12 11:11:51;;;;;;;1.88;1.00;;;22.50;66.60;;;;;;5025194;28;20029;-76
2023/05/12 11:14:17;;;;;;;1.33;0.93;;;22.60;66.20;;;;;;5026885;28;20037;-75
2023/05/12 11:16:43;;;;;;;1.52;0.90;;;22.80;66.10;;;;;;5026192;28;20110;-75
2023/05/12 11:19:09;;;;;;;1.20;1.10;;;22.90;65.40;;;;;;5031674;28;20106;-75
2023/05/12 11:21:36;;;;;;;2.15;0.70;;;23.00;65.10;;;;;;5028025;28;20376;-76
2023/05/12 11:24:02;;;;;;;2.95;0.80;;;23.20;64.90;;;;;;5028844;28;20080;-76
2023/05/12 11:26:28;;;;;;;1.15;0.80;;;23.50;64.00;;;;;;5031077;28;20025;-76
2023/05/12 11:28:56;;;;;;;1.45;0.90;;;23.70;63.30;;;;;;5036921;28;20358;-76
2023/05/12 11:31:22;;;;;;;1.23;0.95;;;23.80;63.20;;;;;;5027657;28;20488;-76
2023/05/12 11:33:48;;;;;;;0.63;0.63;;;24.00;63.00;;;;;;5036523;28;20066;-76
2023/05/12 11:36:20;;;;;;;2.40;1.00;;;24.10;63.00;;;;;;5029844;28;20056;-76
2023/05/12 11:38:51;;;;;;;0.60;0.60;;;24.10;62.10;;;;;;5032423;28;20021;-76
2023/05/12 11:41:25;;;;;;;1.25;0.70;;;24.10;62.40;;;;;;5032398;28;20053;-76
2023/05/12 11:43:51;;;;;;;0.70;0.70;;;24.10;62.20;;;;;;5029353;28;20027;-76
2023/05/12 11:46:59;;;;;;;1.23;0.90;;;24.20;62.20;;;;;;5030311;28;20034;-76
2023/05/12 11:49:26;;;;;;;1.27;0.98;;;24.30;62.20;;;;;;5013023;28;20496;-76
2023/05/12 11:51:57;;;;;;;0.80;0.80;;;24.30;61.70;;;;;;5028693;28;20024;-75
2023/05/12 11:54:24;;;;;;;0.70;0.70;;;24.40;61.10;;;;;;5024250;28;20045;-76
2023/05/12 11:56:54;;;;;;;0.90;0.90;;;24.50;60.70;;;;;;5036249;28;20029;-76
2023/05/12 11:59:33;;;;;;;0.70;0.70;;;24.50;60.60;;;;;;5032075;28;20170;-76
2023/05/12 12:02:03;;;;;;;1.42;0.82;;;24.60;60.70;;;;;;5035486;28;20029;-75
2023/05/12 12:04:37;;;;;;;1.25;1.15;;;24.60;60.70;;;;;;5040817;28;20431;-75
2023/05/12 12:07:09;;;;;;;0.70;0.63;;;24.70;60.30;;;;;;5032865;28;20028;-75
2023/05/12 12:09:37;;;;;;;1.75;1.10;;;24.80;60.40;;;;;;5028252;28;20025;-75
2023/05/12 12:12:04;;;;;;;1.00;0.90;;;24.90;60.00;;;;;;5035782;28;20487;-75
2023/05/12 12:14:31;;;;;;;1.35;0.90;;;25.10;59.60;;;;;;5041314;28;20032;-76
2023/05/12 12:16:57;;;;;;;1.05;0.80;;;25.10;59.00;;;;;;5025789;28;20009;-75
2023/05/12 12:19:24;;;;;;;1.10;1.00;;;25.20;58.00;;;;;;5020253;28;20029;-67
2023/05/12 12:21:50;;;;;;;1.58;0.93;;;25.10;58.30;;;;;;5027054;28;20018;-67
2023/05/12 12:24:16;;;;;;;1.55;0.80;;;24.90;57.30;;;;;;5019575;28;20044;-67
2023/05/12 12:26:42;;;;;;;1.05;0.80;;;24.90;57.50;;;;;;5025439;28;20026;-67
2023/05/12 12:29:08;;;;;;;0.85;0.85;;;24.80;58.00;;;;;;5026398;28;20072;-67
2023/05/12 12:31:35;;;;;;;1.00;0.90;;;24.70;57.40;;;;;;5024218;28;20035;-67
2023/05/12 12:34:01;;;;;;;1.08;0.98;;;24.70;57.60;;;;;;5031386;28;20152;-67
2023/05/12 12:36:27;;;;;;;1.02;0.82;;;24.70;57.90;;;;;;5034408;28;20053;-67
2023/05/12 12:38:52;;;;;;;1.35;0.80;;;24.80;57.80;;;;;;5035989;28;20132;-67
2023/05/12 12:41:18;;;;;;;0.77;0.77;;;24.90;57.50;;;;;;5031342;28;20113;-67
2023/05/12 12:43:44;;;;;;;0.68;0.60;;;24.90;56.20;;;;;;5022958;28;20022;-67
2023/05/12 12:46:10;;;;;;;1.50;0.73;;;24.90;56.40;;;;;;5031645;28;20033;-67
2023/05/12 12:48:36;;;;;;;1.50;0.90;;;25.00;56.60;;;;;;5032817;28;20028;-67